sensor_id;sensor_type;location;lat;lon;timestamp;temperature;humidity
18575;DHT22;9417;16.484;102.872;2023-06-19T00:01:35;26.70;91.00
18575;DHT22;9417;16.484;102.872;2023-06-19T00:03:43;26.80;90.90
18575;DHT22;9417;16.484;102.872;2023-06-19T00:05:50;26.80;90.80
18575;DHT22;9417;16.484;102.872;2023-06-19T00:07:57;26.80;90.60
18575;DHT22;9417;16.484;102.872;2023-06-19T00:10:05;26.90;90.60
18575;DHT22;9417;16.484;102.872;2023-06-19T00:12:13;26.90;90.60
18575;DHT22;9417;16.484;102.872;2023-06-19T00:14:22;26.90;90.40
18575;DHT22;9417;16.484;102.872;2023-06-19T00:16:30;26.90;90.20
18575;DHT22;9417;16.484;102.872;2023-06-19T00:18:38;26.90;90.00
18575;DHT22;9417;16.484;102.872;2023-06-19T00:20:46;26.90;90.00
18575;DHT22;9417;16.484;102.872;2023-06-19T00:22:53;27.00;89.90
18575;DHT22;9417;16.484;102.872;2023-06-19T00:25:01;27.00;89.90
18575;DHT22;9417;16.484;102.872;2023-06-19T00:27:08;27.00;89.80
18575;DHT22;9417;16.484;102.872;2023-06-19T00:29:16;27.00;89.70
18575;DHT22;9417;16.484;102.872;2023-06-19T00:31:25;27.10;89.60
18575;DHT22;9417;16.484;102.872;2023-06-19T00:33:34;27.10;89.60
18575;DHT22;9417;16.484;102.872;2023-06-19T00:35:41;27.10;89.60
18575;DHT22;9417;16.484;102.872;2023-06-19T00:37:48;27.10;89.50
18575;DHT22;9417;16.484;102.872;2023-06-19T00:39:56;27.10;89.40
18575;DHT22;9417;16.484;102.872;2023-06-19T00:42:04;27.20;89.30
18575;DHT22;9417;16.484;102.872;2023-06-19T00:44:11;27.20;89.30
18575;DHT22;9417;16.484;102.872;2023-06-19T00:46:18;27.20;89.30
18575;DHT22;9417;16.484;102.872;2023-06-19T00:48:28;27.20;89.30
18575;DHT22;9417;16.484;102.872;2023-06-19T00:50:36;27.20;88.80
18575;DHT22;9417;16.484;102.872;2023-06-19T00:52:44;27.30;88.60
18575;DHT22;9417;16.484;102.872;2023-06-19T00:54:52;27.30;88.50
18575;DHT22;9417;16.484;102.872;2023-06-19T00:57:01;27.30;88.40
18575;DHT22;9417;16.484;102.872;2023-06-19T00:59:15;27.40;88.40
18575;DHT22;9417;16.484;102.872;2023-06-19T01:01:23;27.30;88.40
18575;DHT22;9417;16.484;102.872;2023-06-19T01:03:33;27.30;88.40
18575;DHT22;9417;16.484;102.872;2023-06-19T01:05:41;27.40;88.50
18575;DHT22;9417;16.484;102.872;2023-06-19T01:07:57;27.40;88.60
18575;DHT22;9417;16.484;102.872;2023-06-19T01:10:09;27.50;88.40
18575;DHT22;9417;16.484;102.872;2023-06-19T01:12:18;27.50;88.20
18575;DHT22;9417;16.484;102.872;2023-06-19T01:14:28;27.50;87.90
18575;DHT22;9417;16.484;102.872;2023-06-19T01:16:38;27.50;87.90
18575;DHT22;9417;16.484;102.872;2023-06-19T01:18:47;27.60;87.70
18575;DHT22;9417;16.484;102.872;2023-06-19T01:20:55;27.60;87.60
18575;DHT22;9417;16.484;102.872;2023-06-19T01:23:10;27.60;87.50
18575;DHT22;9417;16.484;102.872;2023-06-19T01:25:18;27.70;87.40
18575;DHT22;9417;16.484;102.872;2023-06-19T01:27:26;27.70;87.10
18575;DHT22;9417;16.484;102.872;2023-06-19T01:29:35;27.70;86.90
18575;DHT22;9417;16.484;102.872;2023-06-19T01:31:49;27.80;86.60
18575;DHT22;9417;16.484;102.872;2023-06-19T01:34:00;27.90;86.50
18575;DHT22;9417;16.484;102.872;2023-06-19T01:36:08;27.90;86.50
18575;DHT22;9417;16.484;102.872;2023-06-19T01:38:17;27.90;86.40
18575;DHT22;9417;16.484;102.872;2023-06-19T01:40:27;28.00;86.40
18575;DHT22;9417;16.484;102.872;2023-06-19T01:42:38;28.10;86.30
18575;DHT22;9417;16.484;102.872;2023-06-19T01:44:46;28.10;86.00
18575;DHT22;9417;16.484;102.872;2023-06-19T01:46:54;28.10;85.60
18575;DHT22;9417;16.484;102.872;2023-06-19T01:49:01;28.10;85.40
18575;DHT22;9417;16.484;102.872;2023-06-19T01:51:08;28.20;85.40
18575;DHT22;9417;16.484;102.872;2023-06-19T01:53:18;28.20;85.40
18575;DHT22;9417;16.484;102.872;2023-06-19T01:55:25;28.20;85.30
18575;DHT22;9417;16.484;102.872;2023-06-19T01:57:33;28.20;85.30
18575;DHT22;9417;16.484;102.872;2023-06-19T01:59:41;28.20;85.40
18575;DHT22;9417;16.484;102.872;2023-06-19T02:01:48;28.20;85.60
18575;DHT22;9417;16.484;102.872;2023-06-19T02:03:56;28.30;85.70
18575;DHT22;9417;16.484;102.872;2023-06-19T02:06:03;28.30;85.60
18575;DHT22;9417;16.484;102.872;2023-06-19T02:08:11;28.40;85.50
18575;DHT22;9417;16.484;102.872;2023-06-19T02:10:20;28.40;85.20
18575;DHT22;9417;16.484;102.872;2023-06-19T02:12:28;28.40;85.00
18575;DHT22;9417;16.484;102.872;2023-06-19T02:14:35;28.40;84.90
18575;DHT22;9417;16.484;102.872;2023-06-19T02:16:43;28.40;84.50
18575;DHT22;9417;16.484;102.872;2023-06-19T02:18:50;28.50;84.20
18575;DHT22;9417;16.484;102.872;2023-06-19T02:20:57;28.50;84.10
18575;DHT22;9417;16.484;102.872;2023-06-19T02:23:04;28.50;84.00
18575;DHT22;9417;16.484;102.872;2023-06-19T02:25:12;28.50;83.80
18575;DHT22;9417;16.484;102.872;2023-06-19T02:27:21;28.60;83.70
18575;DHT22;9417;16.484;102.872;2023-06-19T02:29:28;28.60;83.90
18575;DHT22;9417;16.484;102.872;2023-06-19T02:31:35;28.60;83.40
18575;DHT22;9417;16.484;102.872;2023-06-19T02:33:43;28.70;83.90
18575;DHT22;9417;16.484;102.872;2023-06-19T02:35:50;28.70;83.80
18575;DHT22;9417;16.484;102.872;2023-06-19T02:37:59;28.70;83.20
18575;DHT22;9417;16.484;102.872;2023-06-19T02:40:10;28.80;83.10
18575;DHT22;9417;16.484;102.872;2023-06-19T02:42:19;28.80;83.00
18575;DHT22;9417;16.484;102.872;2023-06-19T02:44:26;28.80;83.20
18575;DHT22;9417;16.484;102.872;2023-06-19T02:46:33;28.80;82.90
18575;DHT22;9417;16.484;102.872;2023-06-19T02:48:40;28.80;82.90
18575;DHT22;9417;16.484;102.872;2023-06-19T02:50:48;28.80;83.20
18575;DHT22;9417;16.484;102.872;2023-06-19T02:52:55;28.80;83.00
18575;DHT22;9417;16.484;102.872;2023-06-19T02:55:03;28.90;83.20
18575;DHT22;9417;16.484;102.872;2023-06-19T02:57:11;28.90;83.10
18575;DHT22;9417;16.484;102.872;2023-06-19T02:59:21;29.00;82.90
18575;DHT22;9417;16.484;102.872;2023-06-19T03:01:28;29.10;83.30
18575;DHT22;9417;16.484;102.872;2023-06-19T03:03:35;29.20;83.30
18575;DHT22;9417;16.484;102.872;2023-06-19T03:05:43;29.20;82.60
18575;DHT22;9417;16.484;102.872;2023-06-19T03:07:51;29.30;82.10
18575;DHT22;9417;16.484;102.872;2023-06-19T03:09:58;29.40;82.00
18575;DHT22;9417;16.484;102.872;2023-06-19T03:12:06;29.40;81.30
18575;DHT22;9417;16.484;102.872;2023-06-19T03:14:14;29.50;81.00
18575;DHT22;9417;16.484;102.872;2023-06-19T03:16:23;29.60;81.00
18575;DHT22;9417;16.484;102.872;2023-06-19T03:18:30;29.60;81.00
18575;DHT22;9417;16.484;102.872;2023-06-19T03:20:38;29.70;80.80
18575;DHT22;9417;16.484;102.872;2023-06-19T03:22:45;29.70;80.30
18575;DHT22;9417;16.484;102.872;2023-06-19T03:24:53;29.70;79.80
18575;DHT22;9417;16.484;102.872;2023-06-19T03:27:01;29.80;79.80
18575;DHT22;9417;16.484;102.872;2023-06-19T03:29:09;29.80;80.00
18575;DHT22;9417;16.484;102.872;2023-06-19T03:31:32;29.90;80.60
18575;DHT22;9417;16.484;102.872;2023-06-19T03:33:40;29.90;80.10
18575;DHT22;9417;16.484;102.872;2023-06-19T03:35:48;30.10;79.80
18575;DHT22;9417;16.484;102.872;2023-06-19T03:38:14;30.20;79.50
18575;DHT22;9417;16.484;102.872;2023-06-19T03:40:23;30.30;78.70
18575;DHT22;9417;16.484;102.872;2023-06-19T03:42:33;30.30;78.30
18575;DHT22;9417;16.484;102.872;2023-06-19T03:44:40;30.40;77.50
18575;DHT22;9417;16.484;102.872;2023-06-19T03:46:49;30.50;75.50
18575;DHT22;9417;16.484;102.872;2023-06-19T03:48:57;30.50;75.80
18575;DHT22;9417;16.484;102.872;2023-06-19T03:51:04;30.50;75.40
18575;DHT22;9417;16.484;102.872;2023-06-19T03:53:11;30.60;76.30
18575;DHT22;9417;16.484;102.872;2023-06-19T03:55:19;30.60;76.50
18575;DHT22;9417;16.484;102.872;2023-06-19T03:57:26;30.60;76.20
18575;DHT22;9417;16.484;102.872;2023-06-19T03:59:33;30.60;76.30
18575;DHT22;9417;16.484;102.872;2023-06-19T04:01:41;30.60;75.40
18575;DHT22;9417;16.484;102.872;2023-06-19T04:03:50;30.80;75.30
18575;DHT22;9417;16.484;102.872;2023-06-19T04:05:58;30.70;72.90
18575;DHT22;9417;16.484;102.872;2023-06-19T04:08:05;30.80;73.70
18575;DHT22;9417;16.484;102.872;2023-06-19T04:10:13;30.80;73.40
18575;DHT22;9417;16.484;102.872;2023-06-19T04:12:20;30.90;74.10
18575;DHT22;9417;16.484;102.872;2023-06-19T04:14:28;30.80;72.90
18575;DHT22;9417;16.484;102.872;2023-06-19T04:16:36;30.70;72.10
18575;DHT22;9417;16.484;102.872;2023-06-19T04:18:45;30.60;70.10
18575;DHT22;9417;16.484;102.872;2023-06-19T04:20:54;30.50;72.00
18575;DHT22;9417;16.484;102.872;2023-06-19T04:23:02;30.60;73.20
18575;DHT22;9417;16.484;102.872;2023-06-19T04:25:10;30.70;73.60
18575;DHT22;9417;16.484;102.872;2023-06-19T04:27:17;30.80;73.40
18575;DHT22;9417;16.484;102.872;2023-06-19T04:29:25;30.90;73.30
18575;DHT22;9417;16.484;102.872;2023-06-19T04:31:36;31.00;74.20
18575;DHT22;9417;16.484;102.872;2023-06-19T04:33:46;31.00;72.30
18575;DHT22;9417;16.484;102.872;2023-06-19T04:35:55;31.10;71.70
18575;DHT22;9417;16.484;102.872;2023-06-19T04:38:02;31.10;72.70
18575;DHT22;9417;16.484;102.872;2023-06-19T04:40:10;31.20;73.50
18575;DHT22;9417;16.484;102.872;2023-06-19T04:42:18;31.30;72.40
18575;DHT22;9417;16.484;102.872;2023-06-19T04:44:26;31.30;72.40
18575;DHT22;9417;16.484;102.872;2023-06-19T04:46:34;31.40;73.40
18575;DHT22;9417;16.484;102.872;2023-06-19T04:48:42;31.40;72.80
18575;DHT22;9417;16.484;102.872;2023-06-19T04:50:50;31.50;72.20
18575;DHT22;9417;16.484;102.872;2023-06-19T04:52:59;31.60;72.20
18575;DHT22;9417;16.484;102.872;2023-06-19T04:55:07;31.70;71.30
18575;DHT22;9417;16.484;102.872;2023-06-19T04:57:14;31.70;71.20
18575;DHT22;9417;16.484;102.872;2023-06-19T04:59:22;31.70;72.60
18575;DHT22;9417;16.484;102.872;2023-06-19T05:01:29;31.50;70.70
18575;DHT22;9417;16.484;102.872;2023-06-19T05:03:36;31.50;71.20
18575;DHT22;9417;16.484;102.872;2023-06-19T05:05:44;31.40;72.40
18575;DHT22;9417;16.484;102.872;2023-06-19T05:07:51;31.40;72.70
18575;DHT22;9417;16.484;102.872;2023-06-19T05:10:00;31.30;72.40
18575;DHT22;9417;16.484;102.872;2023-06-19T05:12:08;31.40;72.40
18575;DHT22;9417;16.484;102.872;2023-06-19T05:14:16;31.30;72.60
18575;DHT22;9417;16.484;102.872;2023-06-19T05:16:23;31.30;71.50
18575;DHT22;9417;16.484;102.872;2023-06-19T05:18:31;31.20;72.10
18575;DHT22;9417;16.484;102.872;2023-06-19T05:20:38;31.20;71.90
18575;DHT22;9417;16.484;102.872;2023-06-19T05:22:46;31.30;73.20
18575;DHT22;9417;16.484;102.872;2023-06-19T05:24:53;31.40;72.80
18575;DHT22;9417;16.484;102.872;2023-06-19T05:27:02;31.50;72.20
18575;DHT22;9417;16.484;102.872;2023-06-19T05:29:10;31.60;72.50
18575;DHT22;9417;16.484;102.872;2023-06-19T05:31:17;31.60;72.20
18575;DHT22;9417;16.484;102.872;2023-06-19T05:33:24;31.70;70.90
18575;DHT22;9417;16.484;102.872;2023-06-19T05:35:32;31.70;71.50
18575;DHT22;9417;16.484;102.872;2023-06-19T05:37:39;31.70;71.80
18575;DHT22;9417;16.484;102.872;2023-06-19T05:39:48;31.60;71.70
18575;DHT22;9417;16.484;102.872;2023-06-19T05:41:55;31.60;72.10
18575;DHT22;9417;16.484;102.872;2023-06-19T05:44:04;31.70;71.70
18575;DHT22;9417;16.484;102.872;2023-06-19T05:46:11;31.70;71.20
18575;DHT22;9417;16.484;102.872;2023-06-19T05:48:19;31.80;71.50
18575;DHT22;9417;16.484;102.872;2023-06-19T05:50:26;31.90;71.50
18575;DHT22;9417;16.484;102.872;2023-06-19T05:52:33;31.90;70.70
18575;DHT22;9417;16.484;102.872;2023-06-19T05:54:40;32.00;70.30
18575;DHT22;9417;16.484;102.872;2023-06-19T05:56:47;32.00;71.10
18575;DHT22;9417;16.484;102.872;2023-06-19T05:58:55;32.00;69.30
18575;DHT22;9417;16.484;102.872;2023-06-19T06:01:04;32.00;69.90
18575;DHT22;9417;16.484;102.872;2023-06-19T06:03:11;32.00;70.70
18575;DHT22;9417;16.484;102.872;2023-06-19T06:05:19;32.10;70.70
18575;DHT22;9417;16.484;102.872;2023-06-19T06:07:26;32.10;71.10
18575;DHT22;9417;16.484;102.872;2023-06-19T06:09:38;32.20;71.20
18575;DHT22;9417;16.484;102.872;2023-06-19T06:11:45;32.20;70.70
18575;DHT22;9417;16.484;102.872;2023-06-19T06:13:52;32.10;70.00
18575;DHT22;9417;16.484;102.872;2023-06-19T06:15:59;32.00;70.30
18575;DHT22;9417;16.484;102.872;2023-06-19T06:18:08;31.90;70.90
18575;DHT22;9417;16.484;102.872;2023-06-19T06:20:15;31.90;72.10
18575;DHT22;9417;16.484;102.872;2023-06-19T06:22:23;31.90;72.60
18575;DHT22;9417;16.484;102.872;2023-06-19T06:24:30;32.00;72.20
18575;DHT22;9417;16.484;102.872;2023-06-19T06:26:37;32.10;71.80
18575;DHT22;9417;16.484;102.872;2023-06-19T06:28:44;32.00;70.50
18575;DHT22;9417;16.484;102.872;2023-06-19T06:30:52;32.00;70.10
18575;DHT22;9417;16.484;102.872;2023-06-19T06:32:59;31.90;70.60
18575;DHT22;9417;16.484;102.872;2023-06-19T06:35:09;31.90;69.70
18575;DHT22;9417;16.484;102.872;2023-06-19T06:37:16;31.90;69.60
18575;DHT22;9417;16.484;102.872;2023-06-19T06:39:27;31.90;70.10
18575;DHT22;9417;16.484;102.872;2023-06-19T06:41:34;32.00;70.50
18575;DHT22;9417;16.484;102.872;2023-06-19T06:43:42;32.10;70.30
18575;DHT22;9417;16.484;102.872;2023-06-19T06:45:49;32.30;70.10
18575;DHT22;9417;16.484;102.872;2023-06-19T06:47:57;32.40;69.10
18575;DHT22;9417;16.484;102.872;2023-06-19T06:50:05;32.60;69.10
18575;DHT22;9417;16.484;102.872;2023-06-19T06:52:14;32.70;68.80
18575;DHT22;9417;16.484;102.872;2023-06-19T06:54:21;32.80;68.80
18575;DHT22;9417;16.484;102.872;2023-06-19T06:56:28;32.90;66.80
18575;DHT22;9417;16.484;102.872;2023-06-19T06:58:35;32.90;66.50
18575;DHT22;9417;16.484;102.872;2023-06-19T07:00:44;33.00;67.10
18575;DHT22;9417;16.484;102.872;2023-06-19T07:02:52;33.00;68.10
18575;DHT22;9417;16.484;102.872;2023-06-19T07:04:59;32.90;68.50
18575;DHT22;9417;16.484;102.872;2023-06-19T07:07:07;32.70;67.20
18575;DHT22;9417;16.484;102.872;2023-06-19T07:09:16;32.70;67.60
18575;DHT22;9417;16.484;102.872;2023-06-19T07:11:23;32.70;67.10
18575;DHT22;9417;16.484;102.872;2023-06-19T07:13:30;32.80;68.00
18575;DHT22;9417;16.484;102.872;2023-06-19T07:15:37;32.80;67.70
18575;DHT22;9417;16.484;102.872;2023-06-19T07:17:45;32.80;67.50
18575;DHT22;9417;16.484;102.872;2023-06-19T07:19:53;32.80;67.20
18575;DHT22;9417;16.484;102.872;2023-06-19T07:22:00;32.60;66.30
18575;DHT22;9417;16.484;102.872;2023-06-19T07:24:07;32.50;68.20
18575;DHT22;9417;16.484;102.872;2023-06-19T07:26:17;32.50;68.50
18575;DHT22;9417;16.484;102.872;2023-06-19T07:28:24;32.60;69.00
18575;DHT22;9417;16.484;102.872;2023-06-19T07:30:31;32.60;69.10
18575;DHT22;9417;16.484;102.872;2023-06-19T07:32:39;32.70;69.40
18575;DHT22;9417;16.484;102.872;2023-06-19T07:34:46;32.60;68.40
18575;DHT22;9417;16.484;102.872;2023-06-19T07:36:53;32.50;67.90
18575;DHT22;9417;16.484;102.872;2023-06-19T07:39:01;32.50;68.90
18575;DHT22;9417;16.484;102.872;2023-06-19T07:41:09;32.50;69.70
18575;DHT22;9417;16.484;102.872;2023-06-19T07:43:18;32.50;70.10
18575;DHT22;9417;16.484;102.872;2023-06-19T07:45:27;32.50;69.80
18575;DHT22;9417;16.484;102.872;2023-06-19T07:47:34;32.50;69.80
18575;DHT22;9417;16.484;102.872;2023-06-19T07:49:41;32.40;69.50
18575;DHT22;9417;16.484;102.872;2023-06-19T07:51:49;32.40;69.90
18575;DHT22;9417;16.484;102.872;2023-06-19T07:53:56;32.30;70.60
18575;DHT22;9417;16.484;102.872;2023-06-19T07:56:03;32.10;70.10
18575;DHT22;9417;16.484;102.872;2023-06-19T07:58:11;32.00;70.20
18575;DHT22;9417;16.484;102.872;2023-06-19T08:00:20;31.90;70.80
18575;DHT22;9417;16.484;102.872;2023-06-19T08:02:28;31.90;71.90
18575;DHT22;9417;16.484;102.872;2023-06-19T08:04:35;31.70;72.40
18575;DHT22;9417;16.484;102.872;2023-06-19T08:06:43;31.60;72.70
18575;DHT22;9417;16.484;102.872;2023-06-19T08:08:50;31.50;74.60
18575;DHT22;9417;16.484;102.872;2023-06-19T08:10:57;31.20;75.40
18575;DHT22;9417;16.484;102.872;2023-06-19T08:13:05;31.00;76.60
18575;DHT22;9417;16.484;102.872;2023-06-19T08:15:12;30.70;77.50
18575;DHT22;9417;16.484;102.872;2023-06-19T08:17:21;30.50;78.10
18575;DHT22;9417;16.484;102.872;2023-06-19T08:19:29;30.30;79.40
18575;DHT22;9417;16.484;102.872;2023-06-19T08:21:36;30.20;81.30
18575;DHT22;9417;16.484;102.872;2023-06-19T08:23:43;30.20;82.50
18575;DHT22;9417;16.484;102.872;2023-06-19T08:25:51;30.10;83.10
18575;DHT22;9417;16.484;102.872;2023-06-19T08:27:58;30.10;84.00
18575;DHT22;9417;16.484;102.872;2023-06-19T08:30:06;30.00;84.30
18575;DHT22;9417;16.484;102.872;2023-06-19T08:32:13;30.00;84.70
18575;DHT22;9417;16.484;102.872;2023-06-19T08:34:23;29.90;86.00
18575;DHT22;9417;16.484;102.872;2023-06-19T08:36:30;29.80;86.20
18575;DHT22;9417;16.484;102.872;2023-06-19T08:38:38;29.70;85.50
18575;DHT22;9417;16.484;102.872;2023-06-19T08:40:45;29.60;86.50
18575;DHT22;9417;16.484;102.872;2023-06-19T08:42:52;29.60;87.30
18575;DHT22;9417;16.484;102.872;2023-06-19T08:45:00;29.50;88.00
18575;DHT22;9417;16.484;102.872;2023-06-19T08:47:08;29.40;85.70
18575;DHT22;9417;16.484;102.872;2023-06-19T08:49:16;29.20;84.70
18575;DHT22;9417;16.484;102.872;2023-06-19T08:51:27;29.20;85.30
18575;DHT22;9417;16.484;102.872;2023-06-19T08:53:46;29.20;85.50
18575;DHT22;9417;16.484;102.872;2023-06-19T08:55:55;29.20;86.50
18575;DHT22;9417;16.484;102.872;2023-06-19T08:58:03;29.20;87.70
18575;DHT22;9417;16.484;102.872;2023-06-19T09:00:11;29.20;88.40
18575;DHT22;9417;16.484;102.872;2023-06-19T09:02:18;29.30;88.50
18575;DHT22;9417;16.484;102.872;2023-06-19T09:04:26;29.30;88.70
18575;DHT22;9417;16.484;102.872;2023-06-19T09:06:45;29.40;89.00
18575;DHT22;9417;16.484;102.872;2023-06-19T09:08:58;29.40;89.00
18575;DHT22;9417;16.484;102.872;2023-06-19T09:11:07;29.50;88.90
18575;DHT22;9417;16.484;102.872;2023-06-19T09:13:17;29.50;89.00
18575;DHT22;9417;16.484;102.872;2023-06-19T09:15:26;29.50;88.90
18575;DHT22;9417;16.484;102.872;2023-06-19T09:17:34;29.50;87.50
18575;DHT22;9417;16.484;102.872;2023-06-19T09:19:52;29.40;86.30
18575;DHT22;9417;16.484;102.872;2023-06-19T09:22:03;29.40;86.70
18575;DHT22;9417;16.484;102.872;2023-06-19T09:24:11;29.30;87.10
18575;DHT22;9417;16.484;102.872;2023-06-19T09:26:18;29.30;87.20
18575;DHT22;9417;16.484;102.872;2023-06-19T09:28:27;29.30;86.90
18575;DHT22;9417;16.484;102.872;2023-06-19T09:30:34;29.30;86.60
18575;DHT22;9417;16.484;102.872;2023-06-19T09:32:42;29.40;87.60
18575;DHT22;9417;16.484;102.872;2023-06-19T09:34:51;29.40;87.20
18575;DHT22;9417;16.484;102.872;2023-06-19T09:36:58;29.40;87.80
18575;DHT22;9417;16.484;102.872;2023-06-19T09:39:07;29.40;87.30
18575;DHT22;9417;16.484;102.872;2023-06-19T09:41:16;29.40;87.10
18575;DHT22;9417;16.484;102.872;2023-06-19T09:43:26;29.40;86.40
18575;DHT22;9417;16.484;102.872;2023-06-19T09:45:37;29.40;86.30
18575;DHT22;9417;16.484;102.872;2023-06-19T09:47:46;29.50;86.50
18575;DHT22;9417;16.484;102.872;2023-06-19T09:49:55;29.50;86.60
18575;DHT22;9417;16.484;102.872;2023-06-19T09:52:02;29.50;86.80
18575;DHT22;9417;16.484;102.872;2023-06-19T09:54:13;29.60;87.00
18575;DHT22;9417;16.484;102.872;2023-06-19T09:56:21;29.60;86.90
18575;DHT22;9417;16.484;102.872;2023-06-19T09:58:30;29.70;87.10
18575;DHT22;9417;16.484;102.872;2023-06-19T10:00:37;29.70;87.60
18575;DHT22;9417;16.484;102.872;2023-06-19T10:02:46;29.70;88.20
18575;DHT22;9417;16.484;102.872;2023-06-19T10:04:55;29.80;87.70
18575;DHT22;9417;16.484;102.872;2023-06-19T10:07:03;29.80;87.60
18575;DHT22;9417;16.484;102.872;2023-06-19T10:09:13;29.90;87.30
18575;DHT22;9417;16.484;102.872;2023-06-19T10:11:23;29.90;86.80
18575;DHT22;9417;16.484;102.872;2023-06-19T10:13:33;29.90;85.90
18575;DHT22;9417;16.484;102.872;2023-06-19T10:15:42;29.90;85.10
18575;DHT22;9417;16.484;102.872;2023-06-19T10:17:50;29.90;84.80
18575;DHT22;9417;16.484;102.872;2023-06-19T10:19:58;29.90;84.40
18575;DHT22;9417;16.484;102.872;2023-06-19T10:22:05;29.90;83.20
18575;DHT22;9417;16.484;102.872;2023-06-19T10:24:17;29.90;83.20
18575;DHT22;9417;16.484;102.872;2023-06-19T10:26:32;29.90;83.00
18575;DHT22;9417;16.484;102.872;2023-06-19T10:28:45;29.90;83.10
18575;DHT22;9417;16.484;102.872;2023-06-19T10:30:56;29.90;83.30
18575;DHT22;9417;16.484;102.872;2023-06-19T10:33:04;29.90;83.00
18575;DHT22;9417;16.484;102.872;2023-06-19T10:35:12;29.90;83.10
18575;DHT22;9417;16.484;102.872;2023-06-19T10:37:32;29.80;83.20
18575;DHT22;9417;16.484;102.872;2023-06-19T10:39:41;29.80;83.30
18575;DHT22;9417;16.484;102.872;2023-06-19T10:41:49;29.80;83.10
18575;DHT22;9417;16.484;102.872;2023-06-19T10:43:57;29.80;83.20
18575;DHT22;9417;16.484;102.872;2023-06-19T10:46:05;29.80;83.20
18575;DHT22;9417;16.484;102.872;2023-06-19T10:48:19;29.80;83.90
18575;DHT22;9417;16.484;102.872;2023-06-19T10:50:27;29.80;83.70
18575;DHT22;9417;16.484;102.872;2023-06-19T10:52:34;29.80;83.80
18575;DHT22;9417;16.484;102.872;2023-06-19T10:54:44;29.80;84.30
18575;DHT22;9417;16.484;102.872;2023-06-19T10:56:51;29.80;84.80
18575;DHT22;9417;16.484;102.872;2023-06-19T10:59:00;29.80;85.30
18575;DHT22;9417;16.484;102.872;2023-06-19T11:01:08;29.80;85.70
18575;DHT22;9417;16.484;102.872;2023-06-19T11:03:16;29.70;85.40
18575;DHT22;9417;16.484;102.872;2023-06-19T11:05:25;29.80;85.20
18575;DHT22;9417;16.484;102.872;2023-06-19T11:07:33;29.70;85.00
18575;DHT22;9417;16.484;102.872;2023-06-19T11:09:42;29.70;85.00
18575;DHT22;9417;16.484;102.872;2023-06-19T11:11:49;29.60;85.20
18575;DHT22;9417;16.484;102.872;2023-06-19T11:13:56;29.70;85.60
18575;DHT22;9417;16.484;102.872;2023-06-19T11:16:05;29.70;85.80
18575;DHT22;9417;16.484;102.872;2023-06-19T11:18:14;29.70;85.60
18575;DHT22;9417;16.484;102.872;2023-06-19T11:20:22;29.60;85.30
18575;DHT22;9417;16.484;102.872;2023-06-19T11:22:38;29.70;85.20
18575;DHT22;9417;16.484;102.872;2023-06-19T11:24:47;29.70;85.40
18575;DHT22;9417;16.484;102.872;2023-06-19T11:26:56;29.70;85.70
18575;DHT22;9417;16.484;102.872;2023-06-19T11:29:15;29.70;86.10
18575;DHT22;9417;16.484;102.872;2023-06-19T11:31:26;29.70;86.60
18575;DHT22;9417;16.484;102.872;2023-06-19T11:33:34;29.60;86.20
18575;DHT22;9417;16.484;102.872;2023-06-19T11:35:47;29.60;86.10
18575;DHT22;9417;16.484;102.872;2023-06-19T11:37:58;29.60;86.60
18575;DHT22;9417;16.484;102.872;2023-06-19T11:40:09;29.60;87.00
18575;DHT22;9417;16.484;102.872;2023-06-19T11:42:20;29.50;86.90
18575;DHT22;9417;16.484;102.872;2023-06-19T11:44:27;29.50;86.90
18575;DHT22;9417;16.484;102.872;2023-06-19T11:46:35;29.50;87.20
18575;DHT22;9417;16.484;102.872;2023-06-19T11:48:42;29.50;87.20
18575;DHT22;9417;16.484;102.872;2023-06-19T11:51:10;29.40;86.90
18575;DHT22;9417;16.484;102.872;2023-06-19T11:53:19;29.40;86.60
18575;DHT22;9417;16.484;102.872;2023-06-19T11:55:29;29.40;86.60
18575;DHT22;9417;16.484;102.872;2023-06-19T11:57:36;29.40;86.90
18575;DHT22;9417;16.484;102.872;2023-06-19T11:59:44;29.40;87.30
18575;DHT22;9417;16.484;102.872;2023-06-19T12:01:51;29.30;87.80
18575;DHT22;9417;16.484;102.872;2023-06-19T12:04:01;29.30;88.20
18575;DHT22;9417;16.484;102.872;2023-06-19T12:06:09;29.30;88.80
18575;DHT22;9417;16.484;102.872;2023-06-19T12:08:16;29.20;89.40
18575;DHT22;9417;16.484;102.872;2023-06-19T12:10:23;29.20;89.70
18575;DHT22;9417;16.484;102.872;2023-06-19T12:12:32;29.20;89.80
18575;DHT22;9417;16.484;102.872;2023-06-19T12:14:40;29.20;90.10
18575;DHT22;9417;16.484;102.872;2023-06-19T12:16:47;29.20;90.20
18575;DHT22;9417;16.484;102.872;2023-06-19T12:18:55;29.20;90.00
18575;DHT22;9417;16.484;102.872;2023-06-19T12:21:03;29.10;90.00
18575;DHT22;9417;16.484;102.872;2023-06-19T12:23:24;29.10;89.90
18575;DHT22;9417;16.484;102.872;2023-06-19T12:25:31;29.10;90.20
18575;DHT22;9417;16.484;102.872;2023-06-19T12:27:40;29.10;90.70
18575;DHT22;9417;16.484;102.872;2023-06-19T12:29:47;29.10;90.90
18575;DHT22;9417;16.484;102.872;2023-06-19T12:32:00;29.10;90.90
18575;DHT22;9417;16.484;102.872;2023-06-19T12:34:08;29.00;91.20
18575;DHT22;9417;16.484;102.872;2023-06-19T12:36:33;29.00;91.30
18575;DHT22;9417;16.484;102.872;2023-06-19T12:38:40;29.00;91.50
18575;DHT22;9417;16.484;102.872;2023-06-19T12:40:48;29.00;91.60
18575;DHT22;9417;16.484;102.872;2023-06-19T12:42:57;28.90;91.70
18575;DHT22;9417;16.484;102.872;2023-06-19T12:45:05;28.90;91.60
18575;DHT22;9417;16.484;102.872;2023-06-19T12:47:13;28.90;91.50
18575;DHT22;9417;16.484;102.872;2023-06-19T12:49:21;28.90;91.60
18575;DHT22;9417;16.484;102.872;2023-06-19T12:51:29;28.90;91.70
18575;DHT22;9417;16.484;102.872;2023-06-19T12:53:37;28.80;92.00
18575;DHT22;9417;16.484;102.872;2023-06-19T12:55:44;28.80;92.10
18575;DHT22;9417;16.484;102.872;2023-06-19T12:58:06;28.80;92.40
18575;DHT22;9417;16.484;102.872;2023-06-19T13:00:14;28.80;92.60
18575;DHT22;9417;16.484;102.872;2023-06-19T13:02:21;28.80;92.70
18575;DHT22;9417;16.484;102.872;2023-06-19T13:04:29;28.80;92.80
18575;DHT22;9417;16.484;102.872;2023-06-19T13:06:37;28.80;92.90
18575;DHT22;9417;16.484;102.872;2023-06-19T13:08:44;28.80;92.90
18575;DHT22;9417;16.484;102.872;2023-06-19T13:10:51;28.70;92.90
18575;DHT22;9417;16.484;102.872;2023-06-19T13:12:58;28.70;93.10
18575;DHT22;9417;16.484;102.872;2023-06-19T13:15:09;28.70;93.20
18575;DHT22;9417;16.484;102.872;2023-06-19T13:17:16;28.70;93.60
18575;DHT22;9417;16.484;102.872;2023-06-19T13:19:24;28.70;93.90